Main page
METAR-TAF:

METAR-TAF

Airports :

Friedrichshafen Airport

Friedrichshafen, Germany

latitude: 47-40N, longitude: 009-31E, elevation: 416 m

Current weather observation

The report was made 37 minutes ago, at 01:20 UTC
Wind 5 kt from the Northeast
Temperature 10°C
Humidity 82%
Pressure 1018 hPa
Visibility 10 km or more

METAR: EDNY 180120Z AUTO 04005KT 9999 // BKN220/// 10/07 Q1018

Time: 03:57 (01:57 UTC)

Forecast

The report was made 2 hours and 57 minutes ago, at 23:00 UTC
Forecast valid from 18 at 00 UTC to 18 at 24 UTC
Wind 6 kt from the Northeast
Visibility 10 km or more
no clouds below 1500 m and no cumulonimbus
Becoming
from 18 at 08 UTC to 18 at 10 UTC
Wind 11 kt from the Northeast
Becoming
from 18 at 15 UTC to 18 at 18 UTC
Wind 6 kt from the Northeast

TAF: EDNY 172300Z 1800/1824 04006KT CAVOK BECMG 1808/1810 04011KT BECMG 1815/1818 04006KT

Weather observations and forecasts of more than 4000 airports (METAR and TAF reports).

The available stations are represented by yellow and red dots on the map.

Hover mouse over dot to see the name of the station.

Then click to see weather observations and forecasts.

To change the map : click on the green buttons with a black cross to zoom in, on the green button with a dash to zoom out, or on the green arrows for adjacent maps.


METAR-TAF: